sensor_id;sensor_type;location;lat;lon;timestamp;temperature;humidity
14277;DHT22;7222;57.346;12.150;2022-08-16T00:01:58;20.00;99.90
14277;DHT22;7222;57.346;12.150;2022-08-16T00:04:25;19.90;99.90
14277;DHT22;7222;57.346;12.150;2022-08-16T00:06:52;19.80;99.90
14277;DHT22;7222;57.346;12.150;2022-08-16T00:09:20;19.80;99.90
14277;DHT22;7222;57.346;12.150;2022-08-16T00:11:48;19.70;99.90
14277;DHT22;7222;57.346;12.150;2022-08-16T00:14:18;19.70;99.90
14277;DHT22;7222;57.346;12.150;2022-08-16T00:16:46;19.80;99.90
14277;DHT22;7222;57.346;12.150;2022-08-16T00:19:16;19.70;99.90
14277;DHT22;7222;57.346;12.150;2022-08-16T00:21:44;19.80;99.90
14277;DHT22;7222;57.346;12.150;2022-08-16T00:24:13;19.70;99.90
14277;DHT22;7222;57.346;12.150;2022-08-16T00:26:42;19.80;99.90
14277;DHT22;7222;57.346;12.150;2022-08-16T00:29:09;19.90;99.90
14277;DHT22;7222;57.346;12.150;2022-08-16T00:31:36;19.80;99.90
14277;DHT22;7222;57.346;12.150;2022-08-16T00:34:04;19.80;99.90
14277;DHT22;7222;57.346;12.150;2022-08-16T00:36:32;19.70;99.90
14277;DHT22;7222;57.346;12.150;2022-08-16T00:38:59;19.70;99.90
14277;DHT22;7222;57.346;12.150;2022-08-16T00:41:28;19.80;99.90
14277;DHT22;7222;57.346;12.150;2022-08-16T00:43:57;19.80;99.90
14277;DHT22;7222;57.346;12.150;2022-08-16T00:46:30;19.70;99.90
14277;DHT22;7222;57.346;12.150;2022-08-16T00:48:59;19.80;99.90
14277;DHT22;7222;57.346;12.150;2022-08-16T00:51:27;19.80;99.90
14277;DHT22;7222;57.346;12.150;2022-08-16T00:53:57;19.50;99.90
14277;DHT22;7222;57.346;12.150;2022-08-16T00:56:27;19.50;99.90
14277;DHT22;7222;57.346;12.150;2022-08-16T00:58:56;19.60;99.90
14277;DHT22;7222;57.346;12.150;2022-08-16T01:01:23;19.50;99.90
14277;DHT22;7222;57.346;12.150;2022-08-16T01:03:52;19.50;99.90
14277;DHT22;7222;57.346;12.150;2022-08-16T01:06:21;19.70;99.90
14277;DHT22;7222;57.346;12.150;2022-08-16T01:08:50;19.60;99.90
14277;DHT22;7222;57.346;12.150;2022-08-16T01:11:20;19.60;99.90
14277;DHT22;7222;57.346;12.150;2022-08-16T01:13:49;19.60;99.90
14277;DHT22;7222;57.346;12.150;2022-08-16T01:16:21;19.50;99.90
14277;DHT22;7222;57.346;12.150;2022-08-16T01:18:52;19.50;99.90
14277;DHT22;7222;57.346;12.150;2022-08-16T01:21:28;19.40;99.90
14277;DHT22;7222;57.346;12.150;2022-08-16T01:24:10;19.50;99.90
14277;DHT22;7222;57.346;12.150;2022-08-16T01:26:40;19.50;99.90
14277;DHT22;7222;57.346;12.150;2022-08-16T01:29:11;19.40;99.90
14277;DHT22;7222;57.346;12.150;2022-08-16T01:31:39;19.50;99.90
14277;DHT22;7222;57.346;12.150;2022-08-16T01:34:07;19.40;99.90
14277;DHT22;7222;57.346;12.150;2022-08-16T01:36:35;19.40;99.90
14277;DHT22;7222;57.346;12.150;2022-08-16T01:39:10;19.40;99.90
14277;DHT22;7222;57.346;12.150;2022-08-16T01:41:37;19.40;99.90
14277;DHT22;7222;57.346;12.150;2022-08-16T01:44:05;19.30;99.90
14277;DHT22;7222;57.346;12.150;2022-08-16T01:46:34;19.30;99.90
14277;DHT22;7222;57.346;12.150;2022-08-16T01:49:06;19.40;99.90
14277;DHT22;7222;57.346;12.150;2022-08-16T01:51:35;19.50;99.90
14277;DHT22;7222;57.346;12.150;2022-08-16T01:54:02;19.30;99.90
14277;DHT22;7222;57.346;12.150;2022-08-16T01:56:32;19.50;99.90
14277;DHT22;7222;57.346;12.150;2022-08-16T01:59:01;19.30;99.90
14277;DHT22;7222;57.346;12.150;2022-08-16T02:01:29;19.20;99.90
14277;DHT22;7222;57.346;12.150;2022-08-16T02:03:57;19.10;99.90
14277;DHT22;7222;57.346;12.150;2022-08-16T02:06:25;19.10;99.90
14277;DHT22;7222;57.346;12.150;2022-08-16T02:08:53;19.10;99.90
14277;DHT22;7222;57.346;12.150;2022-08-16T02:11:21;19.30;99.90
14277;DHT22;7222;57.346;12.150;2022-08-16T02:13:50;19.20;99.90
14277;DHT22;7222;57.346;12.150;2022-08-16T02:16:18;19.20;99.90
14277;DHT22;7222;57.346;12.150;2022-08-16T02:18:46;19.20;99.90
14277;DHT22;7222;57.346;12.150;2022-08-16T02:21:14;19.10;99.90
14277;DHT22;7222;57.346;12.150;2022-08-16T02:23:42;19.10;99.90
14277;DHT22;7222;57.346;12.150;2022-08-16T02:26:09;19.00;99.90
14277;DHT22;7222;57.346;12.150;2022-08-16T02:28:36;19.10;99.90
14277;DHT22;7222;57.346;12.150;2022-08-16T02:31:08;19.10;99.90
14277;DHT22;7222;57.346;12.150;2022-08-16T02:33:36;19.10;99.90
14277;DHT22;7222;57.346;12.150;2022-08-16T02:36:04;19.00;99.90
14277;DHT22;7222;57.346;12.150;2022-08-16T02:38:32;19.00;99.90
14277;DHT22;7222;57.346;12.150;2022-08-16T02:41:01;19.00;99.90
14277;DHT22;7222;57.346;12.150;2022-08-16T02:43:30;19.10;99.90
14277;DHT22;7222;57.346;12.150;2022-08-16T02:45:59;19.00;99.90
14277;DHT22;7222;57.346;12.150;2022-08-16T02:48:27;19.00;99.90
14277;DHT22;7222;57.346;12.150;2022-08-16T02:50:55;19.00;99.90
14277;DHT22;7222;57.346;12.150;2022-08-16T02:53:23;18.90;99.90
14277;DHT22;7222;57.346;12.150;2022-08-16T02:55:51;19.00;99.90
14277;DHT22;7222;57.346;12.150;2022-08-16T02:58:19;19.00;99.90
14277;DHT22;7222;57.346;12.150;2022-08-16T03:00:47;19.00;99.90
14277;DHT22;7222;57.346;12.150;2022-08-16T03:03:15;19.00;99.90
14277;DHT22;7222;57.346;12.150;2022-08-16T03:05:43;19.00;99.90
14277;DHT22;7222;57.346;12.150;2022-08-16T03:08:12;19.10;99.90
14277;DHT22;7222;57.346;12.150;2022-08-16T03:10:39;19.10;99.90
14277;DHT22;7222;57.346;12.150;2022-08-16T03:13:07;19.20;99.90
14277;DHT22;7222;57.346;12.150;2022-08-16T03:15:35;19.00;99.90
14277;DHT22;7222;57.346;12.150;2022-08-16T03:18:02;19.10;99.90
14277;DHT22;7222;57.346;12.150;2022-08-16T03:20:29;19.10;99.90
14277;DHT22;7222;57.346;12.150;2022-08-16T03:22:58;19.10;99.90
14277;DHT22;7222;57.346;12.150;2022-08-16T03:25:25;19.20;99.90
14277;DHT22;7222;57.346;12.150;2022-08-16T03:27:52;19.00;99.90
14277;DHT22;7222;57.346;12.150;2022-08-16T03:30:21;19.10;99.90
14277;DHT22;7222;57.346;12.150;2022-08-16T03:32:49;19.20;99.90
14277;DHT22;7222;57.346;12.150;2022-08-16T03:35:18;19.20;99.90
14277;DHT22;7222;57.346;12.150;2022-08-16T03:37:47;19.10;99.90
14277;DHT22;7222;57.346;12.150;2022-08-16T03:40:15;19.20;99.90
14277;DHT22;7222;57.346;12.150;2022-08-16T03:42:42;19.20;99.90
14277;DHT22;7222;57.346;12.150;2022-08-16T03:45:09;19.20;99.90
14277;DHT22;7222;57.346;12.150;2022-08-16T03:47:36;19.10;99.90
14277;DHT22;7222;57.346;12.150;2022-08-16T03:50:05;19.20;99.90
14277;DHT22;7222;57.346;12.150;2022-08-16T03:52:33;19.10;99.90
14277;DHT22;7222;57.346;12.150;2022-08-16T03:55:01;19.10;99.90
14277;DHT22;7222;57.346;12.150;2022-08-16T03:57:30;19.20;99.90
14277;DHT22;7222;57.346;12.150;2022-08-16T03:59:57;19.20;99.90
14277;DHT22;7222;57.346;12.150;2022-08-16T04:02:25;19.10;99.90
14277;DHT22;7222;57.346;12.150;2022-08-16T04:04:53;19.20;99.90
14277;DHT22;7222;57.346;12.150;2022-08-16T04:07:20;19.30;99.90
14277;DHT22;7222;57.346;12.150;2022-08-16T04:09:47;19.30;99.90
14277;DHT22;7222;57.346;12.150;2022-08-16T04:12:14;19.30;99.90
14277;DHT22;7222;57.346;12.150;2022-08-16T04:14:43;19.20;99.90
14277;DHT22;7222;57.346;12.150;2022-08-16T04:17:11;19.10;99.90
14277;DHT22;7222;57.346;12.150;2022-08-16T04:19:40;19.30;99.90
14277;DHT22;7222;57.346;12.150;2022-08-16T04:22:09;19.20;99.90
14277;DHT22;7222;57.346;12.150;2022-08-16T04:24:37;19.20;99.90
14277;DHT22;7222;57.346;12.150;2022-08-16T04:27:04;19.40;99.90
14277;DHT22;7222;57.346;12.150;2022-08-16T04:29:31;19.30;99.90
14277;DHT22;7222;57.346;12.150;2022-08-16T04:32:00;19.40;99.90
14277;DHT22;7222;57.346;12.150;2022-08-16T04:34:29;19.30;99.90
14277;DHT22;7222;57.346;12.150;2022-08-16T04:36:57;19.30;99.90
14277;DHT22;7222;57.346;12.150;2022-08-16T04:39:25;19.40;99.90
14277;DHT22;7222;57.346;12.150;2022-08-16T04:41:52;19.40;99.90
14277;DHT22;7222;57.346;12.150;2022-08-16T04:44:19;19.50;99.90
14277;DHT22;7222;57.346;12.150;2022-08-16T04:46:46;19.40;99.90
14277;DHT22;7222;57.346;12.150;2022-08-16T04:49:15;19.50;99.90
14277;DHT22;7222;57.346;12.150;2022-08-16T04:51:43;19.40;99.90
14277;DHT22;7222;57.346;12.150;2022-08-16T04:54:10;19.40;99.90
14277;DHT22;7222;57.346;12.150;2022-08-16T04:56:37;19.50;99.90
14277;DHT22;7222;57.346;12.150;2022-08-16T04:59:05;19.40;99.90
14277;DHT22;7222;57.346;12.150;2022-08-16T05:01:34;19.60;99.90
14277;DHT22;7222;57.346;12.150;2022-08-16T05:04:02;19.60;99.90
14277;DHT22;7222;57.346;12.150;2022-08-16T05:06:31;19.50;99.90
14277;DHT22;7222;57.346;12.150;2022-08-16T05:08:58;19.60;99.90
14277;DHT22;7222;57.346;12.150;2022-08-16T05:11:25;19.50;99.90
14277;DHT22;7222;57.346;12.150;2022-08-16T05:13:53;19.60;99.90
14277;DHT22;7222;57.346;12.150;2022-08-16T05:16:24;19.60;99.90
14277;DHT22;7222;57.346;12.150;2022-08-16T05:18:54;19.70;99.90
14277;DHT22;7222;57.346;12.150;2022-08-16T05:21:21;19.60;99.90
14277;DHT22;7222;57.346;12.150;2022-08-16T05:23:51;19.60;99.90
14277;DHT22;7222;57.346;12.150;2022-08-16T05:26:18;19.70;99.90
14277;DHT22;7222;57.346;12.150;2022-08-16T05:28:46;19.80;99.90
14277;DHT22;7222;57.346;12.150;2022-08-16T05:31:13;19.80;99.90
14277;DHT22;7222;57.346;12.150;2022-08-16T05:33:41;19.80;99.90
14277;DHT22;7222;57.346;12.150;2022-08-16T05:36:08;19.90;99.90
14277;DHT22;7222;57.346;12.150;2022-08-16T05:38:36;19.90;99.90
14277;DHT22;7222;57.346;12.150;2022-08-16T05:41:05;19.90;99.90
14277;DHT22;7222;57.346;12.150;2022-08-16T05:43:32;20.00;99.90
14277;DHT22;7222;57.346;12.150;2022-08-16T05:45:59;20.10;99.90
14277;DHT22;7222;57.346;12.150;2022-08-16T05:48:27;20.10;99.90
14277;DHT22;7222;57.346;12.150;2022-08-16T05:50:54;20.20;99.90
14277;DHT22;7222;57.346;12.150;2022-08-16T05:53:21;20.20;99.90
14277;DHT22;7222;57.346;12.150;2022-08-16T05:55:49;20.20;99.90
14277;DHT22;7222;57.346;12.150;2022-08-16T05:58:18;20.30;99.90
14277;DHT22;7222;57.346;12.150;2022-08-16T06:00:45;20.40;99.90
14277;DHT22;7222;57.346;12.150;2022-08-16T06:03:12;20.60;99.90
14277;DHT22;7222;57.346;12.150;2022-08-16T06:05:39;20.70;99.90
14277;DHT22;7222;57.346;12.150;2022-08-16T06:08:06;21.10;99.90
14277;DHT22;7222;57.346;12.150;2022-08-16T06:10:33;21.30;99.90
14277;DHT22;7222;57.346;12.150;2022-08-16T06:13:00;21.40;99.90
14277;DHT22;7222;57.346;12.150;2022-08-16T06:15:28;21.30;99.90
14277;DHT22;7222;57.346;12.150;2022-08-16T06:17:55;21.20;99.90
14277;DHT22;7222;57.346;12.150;2022-08-16T06:20:26;21.20;99.90
14277;DHT22;7222;57.346;12.150;2022-08-16T06:22:54;21.20;99.90
14277;DHT22;7222;57.346;12.150;2022-08-16T06:25:23;21.20;99.90
14277;DHT22;7222;57.346;12.150;2022-08-16T06:27:50;21.20;99.90
14277;DHT22;7222;57.346;12.150;2022-08-16T06:30:18;21.50;99.90
14277;DHT22;7222;57.346;12.150;2022-08-16T06:32:47;21.50;99.90
14277;DHT22;7222;57.346;12.150;2022-08-16T06:35:14;21.50;99.90
14277;DHT22;7222;57.346;12.150;2022-08-16T06:37:42;21.60;99.90
14277;DHT22;7222;57.346;12.150;2022-08-16T06:40:10;21.80;99.90
14277;DHT22;7222;57.346;12.150;2022-08-16T06:42:37;21.80;99.90
14277;DHT22;7222;57.346;12.150;2022-08-16T06:45:06;21.90;99.90
14277;DHT22;7222;57.346;12.150;2022-08-16T06:47:34;21.90;99.90
14277;DHT22;7222;57.346;12.150;2022-08-16T06:50:03;21.90;99.90
14277;DHT22;7222;57.346;12.150;2022-08-16T06:52:31;22.20;99.90
14277;DHT22;7222;57.346;12.150;2022-08-16T06:55:02;22.40;99.90
14277;DHT22;7222;57.346;12.150;2022-08-16T06:57:29;22.60;99.90
14277;DHT22;7222;57.346;12.150;2022-08-16T06:59:56;22.70;99.90
14277;DHT22;7222;57.346;12.150;2022-08-16T07:02:23;22.80;99.90
14277;DHT22;7222;57.346;12.150;2022-08-16T07:04:50;22.90;99.90
14277;DHT22;7222;57.346;12.150;2022-08-16T07:07:19;23.00;99.90
14277;DHT22;7222;57.346;12.150;2022-08-16T07:09:46;23.10;99.90
14277;DHT22;7222;57.346;12.150;2022-08-16T07:12:14;23.20;99.90
14277;DHT22;7222;57.346;12.150;2022-08-16T07:14:41;23.40;99.90
14277;DHT22;7222;57.346;12.150;2022-08-16T07:17:09;23.40;99.90
14277;DHT22;7222;57.346;12.150;2022-08-16T07:19:36;23.30;99.90
14277;DHT22;7222;57.346;12.150;2022-08-16T07:22:03;23.20;99.90
14277;DHT22;7222;57.346;12.150;2022-08-16T07:24:32;23.10;99.90
14277;DHT22;7222;57.346;12.150;2022-08-16T07:26:59;23.20;99.90
14277;DHT22;7222;57.346;12.150;2022-08-16T07:29:26;23.40;99.90
14277;DHT22;7222;57.346;12.150;2022-08-16T07:31:54;23.60;99.90
14277;DHT22;7222;57.346;12.150;2022-08-16T07:34:21;23.90;99.90
14277;DHT22;7222;57.346;12.150;2022-08-16T07:36:48;23.80;99.90
14277;DHT22;7222;57.346;12.150;2022-08-16T07:39:15;24.00;99.90
14277;DHT22;7222;57.346;12.150;2022-08-16T07:41:43;24.10;99.90
14277;DHT22;7222;57.346;12.150;2022-08-16T07:44:10;24.10;99.90
14277;DHT22;7222;57.346;12.150;2022-08-16T07:46:37;24.10;99.90
14277;DHT22;7222;57.346;12.150;2022-08-16T07:49:04;24.00;99.90
14277;DHT22;7222;57.346;12.150;2022-08-16T07:51:32;24.20;99.90
14277;DHT22;7222;57.346;12.150;2022-08-16T07:54:02;24.40;99.90
14277;DHT22;7222;57.346;12.150;2022-08-16T07:56:29;24.80;99.90
14277;DHT22;7222;57.346;12.150;2022-08-16T07:58:57;24.80;99.90
14277;DHT22;7222;57.346;12.150;2022-08-16T08:01:26;25.00;99.90
14277;DHT22;7222;57.346;12.150;2022-08-16T08:03:55;25.20;99.90
14277;DHT22;7222;57.346;12.150;2022-08-16T08:06:26;25.30;99.90
14277;DHT22;7222;57.346;12.150;2022-08-16T08:08:54;25.60;99.90
14277;DHT22;7222;57.346;12.150;2022-08-16T08:11:22;25.80;99.90
14277;DHT22;7222;57.346;12.150;2022-08-16T08:13:50;25.70;99.90
14277;DHT22;7222;57.346;12.150;2022-08-16T08:16:20;25.50;99.90
14277;DHT22;7222;57.346;12.150;2022-08-16T08:18:47;25.30;99.90
14277;DHT22;7222;57.346;12.150;2022-08-16T08:21:14;25.30;99.90
14277;DHT22;7222;57.346;12.150;2022-08-16T08:23:43;25.40;99.90
14277;DHT22;7222;57.346;12.150;2022-08-16T08:26:13;25.00;99.90
14277;DHT22;7222;57.346;12.150;2022-08-16T08:28:40;25.10;99.90
14277;DHT22;7222;57.346;12.150;2022-08-16T08:31:07;25.10;99.90
14277;DHT22;7222;57.346;12.150;2022-08-16T08:33:36;25.50;99.90
14277;DHT22;7222;57.346;12.150;2022-08-16T08:36:06;25.80;99.90
14277;DHT22;7222;57.346;12.150;2022-08-16T08:38:39;25.20;99.90
14277;DHT22;7222;57.346;12.150;2022-08-16T08:41:06;25.60;99.90
14277;DHT22;7222;57.346;12.150;2022-08-16T08:43:33;25.90;99.90
14277;DHT22;7222;57.346;12.150;2022-08-16T08:46:01;26.20;99.90
14277;DHT22;7222;57.346;12.150;2022-08-16T08:48:28;26.20;99.90
14277;DHT22;7222;57.346;12.150;2022-08-16T08:50:57;26.50;99.90
14277;DHT22;7222;57.346;12.150;2022-08-16T08:53:24;26.30;99.90
14277;DHT22;7222;57.346;12.150;2022-08-16T08:55:52;26.30;99.90
14277;DHT22;7222;57.346;12.150;2022-08-16T08:58:19;26.30;99.90
14277;DHT22;7222;57.346;12.150;2022-08-16T09:00:46;25.70;99.90
14277;DHT22;7222;57.346;12.150;2022-08-16T09:03:13;25.30;99.90
14277;DHT22;7222;57.346;12.150;2022-08-16T09:05:42;25.90;99.90
14277;DHT22;7222;57.346;12.150;2022-08-16T09:08:11;26.50;99.90
14277;DHT22;7222;57.346;12.150;2022-08-16T09:10:38;25.80;99.90
14277;DHT22;7222;57.346;12.150;2022-08-16T09:13:05;25.80;99.90
14277;DHT22;7222;57.346;12.150;2022-08-16T09:15:32;25.10;99.90
14277;DHT22;7222;57.346;12.150;2022-08-16T09:18:00;25.40;99.90
14277;DHT22;7222;57.346;12.150;2022-08-16T09:20:28;25.60;99.90
14277;DHT22;7222;57.346;12.150;2022-08-16T09:22:55;25.30;99.90
14277;DHT22;7222;57.346;12.150;2022-08-16T09:25:27;25.10;99.90
14277;DHT22;7222;57.346;12.150;2022-08-16T09:27:54;25.00;99.90
14277;DHT22;7222;57.346;12.150;2022-08-16T09:30:20;25.10;99.90
14277;DHT22;7222;57.346;12.150;2022-08-16T09:32:48;25.30;99.90
14277;DHT22;7222;57.346;12.150;2022-08-16T09:35:19;25.30;99.90
14277;DHT22;7222;57.346;12.150;2022-08-16T09:37:46;25.20;99.90
14277;DHT22;7222;57.346;12.150;2022-08-16T09:40:13;24.90;99.90
14277;DHT22;7222;57.346;12.150;2022-08-16T09:42:42;25.00;99.90
14277;DHT22;7222;57.346;12.150;2022-08-16T09:45:10;24.50;99.90
14277;DHT22;7222;57.346;12.150;2022-08-16T09:47:37;24.70;99.90
14277;DHT22;7222;57.346;12.150;2022-08-16T09:50:06;24.70;99.90
14277;DHT22;7222;57.346;12.150;2022-08-16T09:52:33;24.50;99.90
14277;DHT22;7222;57.346;12.150;2022-08-16T09:55:03;24.40;99.90
14277;DHT22;7222;57.346;12.150;2022-08-16T09:57:30;24.30;99.90
14277;DHT22;7222;57.346;12.150;2022-08-16T09:59:58;24.40;99.90
14277;DHT22;7222;57.346;12.150;2022-08-16T10:02:27;24.40;99.90
14277;DHT22;7222;57.346;12.150;2022-08-16T10:04:55;24.20;99.90
14277;DHT22;7222;57.346;12.150;2022-08-16T10:07:22;24.30;99.90
14277;DHT22;7222;57.346;12.150;2022-08-16T10:09:50;24.20;99.90
14277;DHT22;7222;57.346;12.150;2022-08-16T10:12:17;24.40;99.90
14277;DHT22;7222;57.346;12.150;2022-08-16T10:15:03;24.30;99.90
14277;DHT22;7222;57.346;12.150;2022-08-16T10:17:32;24.30;99.90
14277;DHT22;7222;57.346;12.150;2022-08-16T10:19:59;24.20;99.90
14277;DHT22;7222;57.346;12.150;2022-08-16T10:22:26;24.30;99.90
14277;DHT22;7222;57.346;12.150;2022-08-16T10:24:53;24.50;99.90
14277;DHT22;7222;57.346;12.150;2022-08-16T10:27:20;24.70;99.90
14277;DHT22;7222;57.346;12.150;2022-08-16T10:29:47;24.40;99.90
14277;DHT22;7222;57.346;12.150;2022-08-16T10:32:15;24.40;99.90
14277;DHT22;7222;57.346;12.150;2022-08-16T10:34:42;24.30;99.90
14277;DHT22;7222;57.346;12.150;2022-08-16T10:37:09;24.10;99.90
14277;DHT22;7222;57.346;12.150;2022-08-16T10:39:37;24.00;99.90
14277;DHT22;7222;57.346;12.150;2022-08-16T10:42:04;24.00;99.90
14277;DHT22;7222;57.346;12.150;2022-08-16T10:44:32;23.60;99.90
14277;DHT22;7222;57.346;12.150;2022-08-16T10:46:58;23.60;99.90
14277;DHT22;7222;57.346;12.150;2022-08-16T10:49:27;23.60;99.90
14277;DHT22;7222;57.346;12.150;2022-08-16T10:51:54;23.70;99.90
14277;DHT22;7222;57.346;12.150;2022-08-16T10:54:21;23.70;99.90
14277;DHT22;7222;57.346;12.150;2022-08-16T10:56:48;23.50;99.90
14277;DHT22;7222;57.346;12.150;2022-08-16T10:59:15;23.70;99.90
14277;DHT22;7222;57.346;12.150;2022-08-16T11:01:42;23.80;99.90
14277;DHT22;7222;57.346;12.150;2022-08-16T11:04:09;23.90;99.90
14277;DHT22;7222;57.346;12.150;2022-08-16T11:06:39;23.80;99.90
14277;DHT22;7222;57.346;12.150;2022-08-16T11:09:07;24.00;99.90
14277;DHT22;7222;57.346;12.150;2022-08-16T11:11:34;24.10;99.90
14277;DHT22;7222;57.346;12.150;2022-08-16T11:14:00;24.20;99.90
14277;DHT22;7222;57.346;12.150;2022-08-16T11:16:27;24.60;99.90
14277;DHT22;7222;57.346;12.150;2022-08-16T11:18:55;24.60;99.90
14277;DHT22;7222;57.346;12.150;2022-08-16T11:21:22;25.30;99.90
14277;DHT22;7222;57.346;12.150;2022-08-16T11:23:52;25.30;99.90
14277;DHT22;7222;57.346;12.150;2022-08-16T11:26:19;25.20;99.90
14277;DHT22;7222;57.346;12.150;2022-08-16T11:28:47;25.10;99.90
14277;DHT22;7222;57.346;12.150;2022-08-16T11:31:15;25.70;99.90
14277;DHT22;7222;57.346;12.150;2022-08-16T11:33:42;25.80;99.90
14277;DHT22;7222;57.346;12.150;2022-08-16T11:36:09;26.20;99.90
14277;DHT22;7222;57.346;12.150;2022-08-16T11:38:36;26.60;99.90
14277;DHT22;7222;57.346;12.150;2022-08-16T11:41:05;26.80;99.90
14277;DHT22;7222;57.346;12.150;2022-08-16T11:43:34;26.80;99.90
14277;DHT22;7222;57.346;12.150;2022-08-16T11:46:06;26.70;99.90
14277;DHT22;7222;57.346;12.150;2022-08-16T11:48:33;26.60;99.90
14277;DHT22;7222;57.346;12.150;2022-08-16T11:51:01;26.50;99.90
14277;DHT22;7222;57.346;12.150;2022-08-16T11:53:30;27.00;99.90
14277;DHT22;7222;57.346;12.150;2022-08-16T11:55:58;26.70;99.90
14277;DHT22;7222;57.346;12.150;2022-08-16T11:58:28;26.40;99.90
14277;DHT22;7222;57.346;12.150;2022-08-16T12:00:56;26.40;99.90
14277;DHT22;7222;57.346;12.150;2022-08-16T12:03:26;26.30;99.90
14277;DHT22;7222;57.346;12.150;2022-08-16T12:05:53;26.20;99.90
14277;DHT22;7222;57.346;12.150;2022-08-16T12:08:21;25.90;99.90
14277;DHT22;7222;57.346;12.150;2022-08-16T12:10:49;26.20;99.90
14277;DHT22;7222;57.346;12.150;2022-08-16T12:13:16;26.60;99.90
14277;DHT22;7222;57.346;12.150;2022-08-16T12:15:44;26.50;99.90
14277;DHT22;7222;57.346;12.150;2022-08-16T12:18:11;26.20;99.90
14277;DHT22;7222;57.346;12.150;2022-08-16T12:20:40;26.50;99.90
14277;DHT22;7222;57.346;12.150;2022-08-16T12:23:08;26.40;99.90
14277;DHT22;7222;57.346;12.150;2022-08-16T12:25:36;26.20;99.90
14277;DHT22;7222;57.346;12.150;2022-08-16T12:28:05;26.40;99.90
14277;DHT22;7222;57.346;12.150;2022-08-16T12:30:36;26.40;99.90
14277;DHT22;7222;57.346;12.150;2022-08-16T12:33:07;26.30;99.90
14277;DHT22;7222;57.346;12.150;2022-08-16T12:35:37;25.70;99.90
14277;DHT22;7222;57.346;12.150;2022-08-16T12:38:05;25.70;99.90
14277;DHT22;7222;57.346;12.150;2022-08-16T12:40:36;26.20;99.90
14277;DHT22;7222;57.346;12.150;2022-08-16T12:43:04;26.30;99.90
14277;DHT22;7222;57.346;12.150;2022-08-16T12:45:34;26.20;99.90
14277;DHT22;7222;57.346;12.150;2022-08-16T12:48:02;26.60;99.90
14277;DHT22;7222;57.346;12.150;2022-08-16T12:50:48;26.40;99.90
14277;DHT22;7222;57.346;12.150;2022-08-16T12:53:15;26.00;99.90
14277;DHT22;7222;57.346;12.150;2022-08-16T12:55:43;26.50;99.90
14277;DHT22;7222;57.346;12.150;2022-08-16T12:58:10;26.30;99.90
14277;DHT22;7222;57.346;12.150;2022-08-16T13:00:39;25.60;99.90
14277;DHT22;7222;57.346;12.150;2022-08-16T13:03:07;25.50;99.90
14277;DHT22;7222;57.346;12.150;2022-08-16T13:05:36;25.70;99.90
14277;DHT22;7222;57.346;12.150;2022-08-16T13:08:09;25.50;99.90
14277;DHT22;7222;57.346;12.150;2022-08-16T13:10:37;25.40;99.90
14277;DHT22;7222;57.346;12.150;2022-08-16T13:13:05;25.50;99.90
14277;DHT22;7222;57.346;12.150;2022-08-16T13:15:33;25.80;99.90
14277;DHT22;7222;57.346;12.150;2022-08-16T13:18:00;25.60;99.90
14277;DHT22;7222;57.346;12.150;2022-08-16T13:20:27;25.50;99.90
14277;DHT22;7222;57.346;12.150;2022-08-16T13:22:59;25.50;99.90
14277;DHT22;7222;57.346;12.150;2022-08-16T13:25:30;25.50;99.90
14277;DHT22;7222;57.346;12.150;2022-08-16T13:27:57;25.50;99.90
14277;DHT22;7222;57.346;12.150;2022-08-16T13:30:26;25.70;99.90
14277;DHT22;7222;57.346;12.150;2022-08-16T13:32:54;25.20;99.90
14277;DHT22;7222;57.346;12.150;2022-08-16T13:35:22;25.10;99.90
14277;DHT22;7222;57.346;12.150;2022-08-16T13:37:49;24.80;99.90
14277;DHT22;7222;57.346;12.150;2022-08-16T13:40:17;24.60;99.90
14277;DHT22;7222;57.346;12.150;2022-08-16T13:42:47;24.60;99.90
14277;DHT22;7222;57.346;12.150;2022-08-16T13:45:15;24.40;99.90
14277;DHT22;7222;57.346;12.150;2022-08-16T13:47:42;24.40;99.90
14277;DHT22;7222;57.346;12.150;2022-08-16T13:50:10;24.60;99.90
14277;DHT22;7222;57.346;12.150;2022-08-16T13:52:38;24.20;99.90
14277;DHT22;7222;57.346;12.150;2022-08-16T13:55:05;24.40;99.90
14277;DHT22;7222;57.346;12.150;2022-08-16T13:57:33;24.50;99.90
14277;DHT22;7222;57.346;12.150;2022-08-16T14:00:03;24.40;99.90
14277;DHT22;7222;57.346;12.150;2022-08-16T14:02:30;24.90;99.90
14277;DHT22;7222;57.346;12.150;2022-08-16T14:04:58;25.30;99.90
14277;DHT22;7222;57.346;12.150;2022-08-16T14:07:25;25.40;99.90
14277;DHT22;7222;57.346;12.150;2022-08-16T14:09:52;25.20;99.90
14277;DHT22;7222;57.346;12.150;2022-08-16T14:12:21;24.80;99.90
14277;DHT22;7222;57.346;12.150;2022-08-16T14:14:50;25.50;99.90
14277;DHT22;7222;57.346;12.150;2022-08-16T14:17:19;25.30;99.90
14277;DHT22;7222;57.346;12.150;2022-08-16T14:19:47;25.30;99.90
14277;DHT22;7222;57.346;12.150;2022-08-16T14:22:17;25.40;99.90
14277;DHT22;7222;57.346;12.150;2022-08-16T14:24:45;25.20;99.90
14277;DHT22;7222;57.346;12.150;2022-08-16T14:27:13;24.90;99.90
14277;DHT22;7222;57.346;12.150;2022-08-16T14:29:40;25.00;99.90
14277;DHT22;7222;57.346;12.150;2022-08-16T14:32:08;25.20;99.90
14277;DHT22;7222;57.346;12.150;2022-08-16T14:34:37;25.30;99.90
14277;DHT22;7222;57.346;12.150;2022-08-16T14:37:04;25.30;99.90
14277;DHT22;7222;57.346;12.150;2022-08-16T14:39:31;25.40;99.90
14277;DHT22;7222;57.346;12.150;2022-08-16T14:42:05;25.40;99.90
14277;DHT22;7222;57.346;12.150;2022-08-16T14:44:33;25.30;99.90
14277;DHT22;7222;57.346;12.150;2022-08-16T14:47:00;25.30;99.90
14277;DHT22;7222;57.346;12.150;2022-08-16T14:49:27;24.90;99.90
14277;DHT22;7222;57.346;12.150;2022-08-16T14:52:00;25.00;99.90
14277;DHT22;7222;57.346;12.150;2022-08-16T14:54:27;25.20;99.90
14277;DHT22;7222;57.346;12.150;2022-08-16T14:56:54;25.20;99.90
14277;DHT22;7222;57.346;12.150;2022-08-16T14:59:21;25.20;99.90
14277;DHT22;7222;57.346;12.150;2022-08-16T15:01:49;24.90;99.90
14277;DHT22;7222;57.346;12.150;2022-08-16T15:04:16;25.10;99.90
14277;DHT22;7222;57.346;12.150;2022-08-16T15:06:43;25.10;99.90
14277;DHT22;7222;57.346;12.150;2022-08-16T15:09:11;24.70;99.90
14277;DHT22;7222;57.346;12.150;2022-08-16T15:11:39;24.60;99.90
14277;DHT22;7222;57.346;12.150;2022-08-16T15:14:06;24.00;99.90
14277;DHT22;7222;57.346;12.150;2022-08-16T15:16:33;24.40;99.90
14277;DHT22;7222;57.346;12.150;2022-08-16T15:19:01;24.60;99.90
14277;DHT22;7222;57.346;12.150;2022-08-16T15:21:28;24.40;99.90
14277;DHT22;7222;57.346;12.150;2022-08-16T15:23:56;23.70;99.90
14277;DHT22;7222;57.346;12.150;2022-08-16T15:26:25;23.80;99.90
14277;DHT22;7222;57.346;12.150;2022-08-16T15:28:52;23.80;99.90
14277;DHT22;7222;57.346;12.150;2022-08-16T15:31:19;23.50;99.90
14277;DHT22;7222;57.346;12.150;2022-08-16T15:33:50;23.60;99.90
14277;DHT22;7222;57.346;12.150;2022-08-16T15:36:18;23.50;99.90